createdAt,value
2023-04-17T00:00:10.964Z,100548.63
2023-04-17T00:02:58.609Z,100547.38
2023-04-17T00:05:26.889Z,100544.28
2023-04-17T00:07:54.611Z,100539.56
2023-04-17T00:10:22.602Z,100542.84
2023-04-17T00:12:50.147Z,100538.81
2023-04-17T00:15:17.947Z,100542.50
2023-04-17T00:17:45.518Z,100537.13
2023-04-17T00:20:13.676Z,100539.31
2023-04-17T00:22:41.361Z,100542.22
2023-04-17T00:25:11.786Z,100539.16
2023-04-17T00:27:39.365Z,100536.16
2023-04-17T00:30:07.848Z,100541.81
2023-04-17T00:32:35.904Z,100541.84
2023-04-17T00:35:03.840Z,100533.63
2023-04-17T00:37:31.375Z,100538.72
2023-04-17T00:39:59.279Z,100532.06
2023-04-17T00:42:27.285Z,100527.16
2023-04-17T00:44:55.380Z,100529.00
2023-04-17T00:47:23.137Z,100517.16
2023-04-17T00:49:51.699Z,100515.06
2023-04-17T00:52:24.291Z,100517.25
2023-04-17T00:54:52.122Z,100518.38
2023-04-17T00:57:19.823Z,100527.97
2023-04-17T00:59:48.442Z,100520.72
2023-04-17T01:02:17.034Z,100519.69
2023-04-17T01:04:45.108Z,100515.00
2023-04-17T01:07:12.650Z,100514.50
2023-04-17T01:09:41.207Z,100510.50
2023-04-17T01:12:16.055Z,100513.91
2023-04-17T01:14:43.954Z,100519.47
2023-04-17T01:17:14.677Z,100507.16
2023-04-17T01:19:42.926Z,100506.25
2023-04-17T01:22:10.526Z,100506.06
2023-04-17T01:24:38.949Z,100506.56
2023-04-17T01:27:07.181Z,100512.00
2023-04-17T01:29:36.525Z,100506.44
2023-04-17T01:32:04.158Z,100507.75
2023-04-17T01:34:32.089Z,100508.09
2023-04-17T01:36:59.806Z,100509.50
2023-04-17T01:39:27.826Z,100516.19
2023-04-17T01:41:55.496Z,100514.88
2023-04-17T01:44:23.736Z,100508.78
2023-04-17T01:46:51.457Z,100516.25
2023-04-17T01:49:19.819Z,100514.28
2023-04-17T01:51:47.355Z,100516.03
2023-04-17T01:54:17.848Z,100512.81
2023-04-17T01:56:45.426Z,100506.56
2023-04-17T01:59:13.695Z,100507.91
2023-04-17T02:01:41.484Z,100505.28
2023-04-17T02:04:09.658Z,100509.00
2023-04-17T02:06:37.468Z,100511.63
2023-04-17T02:09:06.311Z,100509.31
2023-04-17T02:11:36.909Z,100508.06
2023-04-17T02:14:04.885Z,100505.41
2023-04-17T02:16:32.516Z,100508.50
2023-04-17T02:19:00.568Z,100509.41
2023-04-17T02:21:28.485Z,100507.19
2023-04-17T02:23:58.065Z,100504.13
2023-04-17T02:26:29.149Z,100500.50
2023-04-17T02:28:57.006Z,100512.00
2023-04-17T02:31:24.602Z,100510.16
2023-04-17T02:33:52.751Z,100494.72
2023-04-17T02:36:20.447Z,100503.19
2023-04-17T02:38:48.369Z,100498.53
2023-04-17T02:41:16.074Z,100505.72
2023-04-17T02:43:44.936Z,100502.69
2023-04-17T02:46:12.498Z,100500.03
2023-04-17T02:48:40.493Z,100503.31
2023-04-17T02:51:08.029Z,100503.25
2023-04-17T02:53:36.062Z,100509.50
2023-04-17T02:56:03.983Z,100506.53
2023-04-17T02:58:34.299Z,100504.81
2023-04-17T03:01:03.069Z,100505.38
2023-04-17T03:03:35.608Z,100499.78
2023-04-17T03:06:09.392Z,100509.31
2023-04-17T03:08:38.977Z,100502.50
2023-04-17T03:11:06.963Z,100505.84
2023-04-17T03:13:36.998Z,100505.19
2023-04-17T03:16:05.296Z,100497.69
2023-04-17T03:18:36.162Z,100509.50
2023-04-17T03:21:03.749Z,100506.28
2023-04-17T03:23:31.934Z,100498.06
2023-04-17T03:25:59.439Z,100505.91
2023-04-17T03:28:28.570Z,100506.63
2023-04-17T03:30:59.664Z,100503.19
2023-04-17T03:33:27.690Z,100506.63
2023-04-17T03:35:58.123Z,100509.03
2023-04-17T03:38:26.025Z,100510.84
2023-04-17T03:40:54.985Z,100508.34
2023-04-17T03:43:25.697Z,100504.81
2023-04-17T03:45:53.262Z,100496.97
2023-04-17T03:48:22.294Z,100495.41
2023-04-17T03:50:51.964Z,100491.00
2023-04-17T03:53:20.242Z,100497.88
2023-04-17T03:55:49.722Z,100502.13
2023-04-17T03:58:26.672Z,100502.19
2023-04-17T04:00:55.845Z,100499.97
2023-04-17T04:03:27.513Z,100505.56
2023-04-17T04:05:55.566Z,100504.34
2023-04-17T04:08:23.726Z,100507.00
2023-04-17T04:10:53.327Z,100507.31
2023-04-17T04:13:34.745Z,100510.91
2023-04-17T04:16:04.260Z,100507.50
2023-04-17T04:18:35.409Z,100503.19
2023-04-17T04:21:04.290Z,100506.31
2023-04-17T04:23:38.057Z,100511.75
2023-04-17T04:26:05.866Z,100514.66
2023-04-17T04:28:49.149Z,100513.09
2023-04-17T04:31:26.109Z,100504.94
2023-04-17T04:33:55.646Z,100505.47
2023-04-17T04:36:24.201Z,100505.44
2023-04-17T04:39:07.441Z,100517.69
2023-04-17T04:41:38.547Z,100519.34
2023-04-17T04:44:09.724Z,100519.34
2023-04-17T04:46:39.717Z,100510.97
2023-04-17T04:49:07.836Z,100508.72
2023-04-17T04:51:36.436Z,100512.66
2023-04-17T04:54:07.808Z,100504.09
2023-04-17T04:56:45.244Z,100493.56
2023-04-17T04:59:15.124Z,100512.22
2023-04-17T05:01:49.501Z,100515.03
2023-04-17T05:04:20.450Z,100521.81
2023-04-17T05:06:52.301Z,100519.19
2023-04-17T05:09:20.619Z,100526.75
2023-04-17T05:11:50.010Z,100532.59
2023-04-17T05:14:17.827Z,100535.25
2023-04-17T05:16:45.616Z,100529.47
2023-04-17T05:19:15.873Z,100534.72
2023-04-17T05:21:53.560Z,100536.72
2023-04-17T05:24:23.347Z,100537.81
2023-04-17T05:26:51.109Z,100543.53
2023-04-17T05:29:19.528Z,100541.97
2023-04-17T05:31:47.645Z,100539.44
2023-04-17T05:34:38.812Z,100545.19
2023-04-17T05:37:07.291Z,100535.63
2023-04-17T05:39:35.141Z,100535.84
2023-04-17T05:42:03.209Z,100534.16
2023-04-17T05:44:32.218Z,100530.59
2023-04-17T05:47:03.853Z,100535.38
2023-04-17T05:49:31.983Z,100537.56
2023-04-17T05:51:59.728Z,100542.75
2023-04-17T05:54:30.557Z,100542.66
2023-04-17T05:56:59.139Z,100548.91
2023-04-17T05:59:27.568Z,100551.59
2023-04-17T06:01:55.434Z,100558.84
2023-04-17T06:04:24.064Z,100556.53
2023-04-17T06:06:52.829Z,100562.31
2023-04-17T06:09:23.467Z,100560.63
2023-04-17T06:11:52.196Z,100558.22
2023-04-17T06:14:20.103Z,100571.44
2023-04-17T06:16:48.590Z,100572.50
2023-04-17T06:19:18.278Z,100570.50
2023-04-17T06:21:45.984Z,100580.31
2023-04-17T06:24:13.958Z,100574.63
2023-04-17T06:26:46.709Z,100587.38
2023-04-17T06:29:15.834Z,100584.91
2023-04-17T06:31:44.537Z,100589.78
2023-04-17T06:34:13.400Z,100577.53
2023-04-17T06:36:45.372Z,100586.19
2023-04-17T06:39:16.507Z,100592.75
2023-04-17T06:41:44.403Z,100583.81
2023-04-17T06:44:13.475Z,100589.66
2023-04-17T06:46:46.707Z,100588.38
2023-04-17T06:49:14.997Z,100586.75
2023-04-17T06:51:46.003Z,100585.47
2023-04-17T06:54:14.335Z,100595.84
2023-04-17T06:56:41.846Z,100598.16
2023-04-17T06:59:10.315Z,100591.31
2023-04-17T07:01:40.484Z,100593.41
2023-04-17T07:04:09.706Z,100584.22
2023-04-17T07:06:38.634Z,100594.28
2023-04-17T07:09:06.576Z,100602.81
2023-04-17T07:11:34.178Z,100600.16
2023-04-17T07:14:02.073Z,100599.09
2023-04-17T07:16:29.689Z,100603.25
2023-04-17T07:18:57.844Z,100601.25
2023-04-17T07:21:27.034Z,100599.59
2023-04-17T07:23:54.982Z,100597.94
2023-04-17T07:26:22.859Z,100607.28
2023-04-17T07:28:51.246Z,100598.00
2023-04-17T07:31:18.914Z,100605.78
2023-04-17T07:33:47.135Z,100606.56
2023-04-17T07:36:14.840Z,100613.28
2023-04-17T07:38:42.661Z,100605.03
2023-04-17T07:41:11.822Z,100616.28
2023-04-17T07:43:39.736Z,100612.22
2023-04-17T07:46:07.302Z,100614.66
2023-04-17T07:48:35.256Z,100617.59
2023-04-17T07:51:02.831Z,100622.63
2023-04-17T07:53:31.065Z,100621.53
2023-04-17T07:55:58.730Z,100627.31
2023-04-17T07:58:27.382Z,100634.03
2023-04-17T08:00:55.006Z,100627.34
2023-04-17T08:03:24.344Z,100634.09
2023-04-17T08:05:52.371Z,100644.38
2023-04-17T08:08:20.201Z,100639.66
2023-04-17T08:10:47.754Z,100641.25
2023-04-17T08:13:15.881Z,100650.25
2023-04-17T08:15:44.149Z,100649.69
2023-04-17T08:18:12.031Z,100644.16
2023-04-17T08:20:40.176Z,100643.00
2023-04-17T08:23:07.976Z,100646.19
2023-04-17T08:25:35.589Z,100645.53
2023-04-17T08:28:03.369Z,100650.03
2023-04-17T08:30:30.948Z,100651.56
2023-04-17T08:32:59.008Z,100652.19
2023-04-17T08:35:26.905Z,100653.56
2023-04-17T08:37:56.951Z,100647.78
2023-04-17T08:40:26.380Z,100654.28
2023-04-17T08:42:54.538Z,100666.41
2023-04-17T08:45:24.336Z,100659.59
2023-04-17T08:47:52.368Z,100651.88
2023-04-17T08:50:22.080Z,100659.59
2023-04-17T08:52:50.655Z,100653.72
2023-04-17T08:55:22.645Z,100657.25
2023-04-17T08:58:06.285Z,100655.16
2023-04-17T09:00:35.966Z,100659.69
2023-04-17T09:03:05.160Z,100656.09
2023-04-17T09:05:33.735Z,100662.78
2023-04-17T09:08:09.320Z,100655.53
2023-04-17T09:10:45.148Z,100650.75
2023-04-17T09:13:16.578Z,100651.38
2023-04-17T09:15:46.590Z,100645.97
2023-04-17T09:18:25.077Z,100638.22
2023-04-17T09:20:53.299Z,100647.19
2023-04-17T09:23:22.897Z,100637.47
2023-04-17T09:26:07.992Z,100645.00
2023-04-17T09:28:35.860Z,100643.06
2023-04-17T09:31:05.706Z,100638.91
2023-04-17T09:33:33.446Z,100640.34
2023-04-17T09:36:21.870Z,100645.75
2023-04-17T09:38:49.905Z,100645.75
2023-04-17T09:41:23.680Z,100640.25
2023-04-17T09:43:53.801Z,100640.56
2023-04-17T09:46:31.343Z,100644.03
2023-04-17T09:49:02.391Z,100646.97
2023-04-17T09:51:30.832Z,100644.47
2023-04-17T09:53:59.523Z,100644.06
2023-04-17T09:56:29.748Z,100641.81
2023-04-17T09:58:57.760Z,100642.44
2023-04-17T10:01:25.849Z,100641.41
2023-04-17T10:03:53.743Z,100636.84
2023-04-17T10:06:21.659Z,100645.63
2023-04-17T10:08:49.567Z,100632.47
2023-04-17T10:11:17.747Z,100636.00
2023-04-17T10:13:47.455Z,100628.19
2023-04-17T10:16:15.499Z,100627.72
2023-04-17T10:18:42.996Z,100624.75
2023-04-17T10:21:22.184Z,100615.41
2023-04-17T10:23:49.806Z,100625.47
2023-04-17T10:26:26.633Z,100612.41
2023-04-17T10:28:55.150Z,100619.44
2023-04-17T10:31:25.643Z,100611.78
2023-04-17T10:33:54.504Z,100608.44
2023-04-17T10:36:40.896Z,100613.84
2023-04-17T10:39:15.226Z,100612.41
2023-04-17T10:42:03.375Z,100611.97
2023-04-17T10:44:34.566Z,100610.38
2023-04-17T10:47:07.088Z,100608.16
2023-04-17T10:49:50.813Z,100607.28
2023-04-17T10:52:45.124Z,100607.25
2023-04-17T10:55:16.451Z,100607.97
2023-04-17T10:57:57.009Z,100605.13
2023-04-17T11:00:29.632Z,100604.53
2023-04-17T11:02:58.407Z,100597.97
2023-04-17T11:05:25.959Z,100595.56
2023-04-17T11:07:53.927Z,100591.22
2023-04-17T11:10:23.223Z,100581.69
2023-04-17T11:12:56.966Z,100590.56
2023-04-17T11:15:28.290Z,100582.47
2023-04-17T11:17:56.805Z,100586.50
2023-04-17T11:20:25.197Z,100591.66
2023-04-17T11:22:53.432Z,100574.84
2023-04-17T11:25:21.528Z,100573.72
2023-04-17T11:27:55.274Z,100575.44
2023-04-17T11:30:27.699Z,100577.16
2023-04-17T11:32:57.542Z,100571.97
2023-04-17T11:35:32.250Z,100568.84
2023-04-17T11:38:14.041Z,100573.03
2023-04-17T11:40:45.598Z,100565.31
2023-04-17T11:43:13.857Z,100568.22
2023-04-17T11:45:43.129Z,100577.00
2023-04-17T11:48:12.201Z,100574.19
2023-04-17T11:50:41.138Z,100570.31
2023-04-17T11:53:09.269Z,100580.44
2023-04-17T11:55:36.831Z,100568.81
2023-04-17T11:58:06.494Z,100573.25
2023-04-17T12:00:34.548Z,100576.59
2023-04-17T12:03:03.322Z,100585.25
2023-04-17T12:05:31.236Z,100592.66
2023-04-17T12:08:04.760Z,100579.69
2023-04-17T12:10:42.579Z,100581.22
2023-04-17T12:13:11.331Z,100586.19
2023-04-17T12:15:39.154Z,100584.19
2023-04-17T12:18:08.792Z,100580.06
2023-04-17T12:20:36.861Z,100583.53
2023-04-17T12:23:06.053Z,100581.25
2023-04-17T12:25:33.894Z,100575.06
2023-04-17T12:28:05.072Z,100569.19
2023-04-17T12:30:36.148Z,100573.84
2023-04-17T12:33:04.155Z,100578.13
2023-04-17T12:35:31.795Z,100566.13
2023-04-17T12:37:59.724Z,100561.00
2023-04-17T12:40:27.350Z,100564.09
2023-04-17T12:42:55.270Z,100565.31
2023-04-17T12:45:22.939Z,100558.72
2023-04-17T12:47:51.253Z,100574.56
2023-04-17T12:50:18.890Z,100560.88
2023-04-17T12:52:46.840Z,100563.41
2023-04-17T12:55:14.432Z,100567.44
2023-04-17T12:57:42.450Z,100555.59
2023-04-17T13:00:11.287Z,100555.16
2023-04-17T13:02:39.411Z,100561.81
2023-04-17T13:05:07.590Z,100551.31
2023-04-17T13:07:35.526Z,100544.75
2023-04-17T13:10:03.184Z,100551.66
2023-04-17T13:12:31.049Z,100542.69
2023-04-17T13:14:59.152Z,100544.28
2023-04-17T13:17:27.069Z,100530.66
2023-04-17T13:19:54.624Z,100537.91
2023-04-17T13:22:22.527Z,100535.47
2023-04-17T13:24:50.076Z,100537.63
2023-04-17T13:27:17.989Z,100533.81
2023-04-17T13:29:45.622Z,100541.59
2023-04-17T13:32:13.685Z,100526.75
2023-04-17T13:34:41.245Z,100532.50
2023-04-17T13:37:10.375Z,100528.78
2023-04-17T13:39:38.279Z,100525.88
2023-04-17T13:42:06.242Z,100531.78
2023-04-17T13:44:33.876Z,100520.84
2023-04-17T13:47:03.969Z,100514.44
2023-04-17T13:49:31.523Z,100512.09
2023-04-17T13:51:59.489Z,100517.66
2023-04-17T13:54:27.059Z,100509.78
2023-04-17T13:56:54.926Z,100502.75
2023-04-17T13:59:22.507Z,100509.94
2023-04-17T14:01:50.481Z,100505.84
2023-04-17T14:04:18.297Z,100505.50
2023-04-17T14:06:49.714Z,100500.91
2023-04-17T14:09:17.465Z,100502.22
2023-04-17T14:11:45.471Z,100506.28
2023-04-17T14:14:13.074Z,100504.50
2023-04-17T14:16:41.310Z,100512.00
2023-04-17T14:19:14.098Z,100504.72
2023-04-17T14:21:42.975Z,100503.81
2023-04-17T14:24:10.716Z,100501.91
2023-04-17T14:26:38.758Z,100492.75
2023-04-17T14:29:06.398Z,100497.69
2023-04-17T14:31:36.536Z,100501.78
2023-04-17T14:34:04.295Z,100488.50
2023-04-17T14:36:32.247Z,100492.75
2023-04-17T14:38:59.907Z,100489.38
2023-04-17T14:41:30.160Z,100488.78
2023-04-17T14:43:57.829Z,100498.22
2023-04-17T14:46:26.025Z,100482.75
2023-04-17T14:48:56.534Z,100478.13
2023-04-17T14:51:24.443Z,100481.75
2023-04-17T14:53:53.113Z,100475.94
2023-04-17T14:56:22.015Z,100473.38
2023-04-17T14:58:49.776Z,100466.72
2023-04-17T15:01:17.927Z,100464.69
2023-04-17T15:03:48.197Z,100473.13
2023-04-17T15:06:16.990Z,100475.63
2023-04-17T15:08:46.512Z,100471.59
2023-04-17T15:11:14.343Z,100488.66
2023-04-17T15:13:42.148Z,100480.56
2023-04-17T15:16:11.035Z,100477.72
2023-04-17T15:18:39.780Z,100488.41
2023-04-17T15:21:07.808Z,100481.41
2023-04-17T15:23:35.789Z,100491.06
2023-04-17T15:26:03.683Z,100491.31
2023-04-17T15:28:31.353Z,100496.56
2023-04-17T15:30:59.210Z,100494.09
2023-04-17T15:33:26.833Z,100499.88
2023-04-17T15:35:56.408Z,100494.94
2023-04-17T15:38:24.285Z,100492.66
2023-04-17T15:40:52.317Z,100499.31
2023-04-17T15:43:20.457Z,100504.31
2023-04-17T15:45:48.702Z,100498.78
2023-04-17T15:48:16.760Z,100497.38
2023-04-17T15:50:46.398Z,100503.47
2023-04-17T15:53:14.537Z,100494.34
2023-04-17T15:55:43.536Z,100496.63
2023-04-17T15:58:11.255Z,100490.72
2023-04-17T16:00:40.150Z,100501.69
2023-04-17T16:03:08.143Z,100490.56
2023-04-17T16:05:36.253Z,100494.00
2023-04-17T16:08:03.906Z,100496.81
2023-04-17T16:10:31.834Z,100489.72
2023-04-17T16:12:59.435Z,100498.09
2023-04-17T16:15:28.023Z,100492.78
2023-04-17T16:17:55.641Z,100499.50
2023-04-17T16:20:24.822Z,100489.38
2023-04-17T16:22:52.505Z,100493.44
2023-04-17T16:25:20.997Z,100495.84
2023-04-17T16:27:48.984Z,100494.50
2023-04-17T16:30:17.670Z,100500.97
2023-04-17T16:32:45.721Z,100493.88
2023-04-17T16:35:13.704Z,100496.69
2023-04-17T16:37:41.284Z,100498.91
2023-04-17T16:40:09.485Z,100505.22
2023-04-17T16:42:38.367Z,100507.00
2023-04-17T16:45:07.544Z,100502.66
2023-04-17T16:47:35.257Z,100506.63
2023-04-17T16:50:03.993Z,100491.84
2023-04-17T16:52:31.771Z,100504.81
2023-04-17T16:54:59.726Z,100497.63
2023-04-17T16:57:27.456Z,100506.53
2023-04-17T16:59:55.647Z,100502.31
2023-04-17T17:02:23.437Z,100515.22
2023-04-17T17:04:51.673Z,100504.38
2023-04-17T17:07:19.954Z,100501.38
2023-04-17T17:09:48.064Z,100508.53
2023-04-17T17:12:15.674Z,100499.81
2023-04-17T17:14:44.764Z,100499.84
2023-04-17T17:17:12.434Z,100501.69
2023-04-17T17:19:40.804Z,100507.22
2023-04-17T17:22:08.529Z,100508.06
2023-04-17T17:24:36.460Z,100507.09
2023-04-17T17:27:04.161Z,100507.50
2023-04-17T17:29:32.403Z,100512.09
2023-04-17T17:32:00.165Z,100509.69
2023-04-17T17:34:30.441Z,100503.88
2023-04-17T17:36:58.726Z,100506.44
2023-04-17T17:39:26.935Z,100510.63
2023-04-17T17:41:56.336Z,100508.88
2023-04-17T17:44:24.473Z,100515.22
2023-04-17T17:46:52.145Z,100502.50
2023-04-17T17:49:20.067Z,100510.19
2023-04-17T17:51:47.681Z,100509.19
2023-04-17T17:54:15.669Z,100505.69
2023-04-17T17:56:43.318Z,100505.84
2023-04-17T17:59:11.574Z,100505.88
2023-04-17T18:01:40.438Z,100514.84
2023-04-17T18:04:08.983Z,100503.69
2023-04-17T18:06:36.954Z,100518.66
2023-04-17T18:09:05.135Z,100518.16
2023-04-17T18:11:32.746Z,100516.16
2023-04-17T18:14:00.928Z,100522.97
2023-04-17T18:16:31.644Z,100518.41
2023-04-17T18:19:02.074Z,100527.28
2023-04-17T18:21:31.054Z,100527.41
2023-04-17T18:23:59.103Z,100520.94
2023-04-17T18:26:26.738Z,100524.19
2023-04-17T18:28:56.663Z,100520.34
2023-04-17T18:31:26.622Z,100524.66
2023-04-17T18:33:54.820Z,100528.19
2023-04-17T18:36:22.680Z,100534.13
2023-04-17T18:38:50.767Z,100533.97
2023-04-17T18:41:18.713Z,100541.81
2023-04-17T18:43:47.741Z,100535.78
2023-04-17T18:46:18.460Z,100538.13
2023-04-17T18:48:46.638Z,100539.91
2023-04-17T18:51:14.916Z,100545.31
2023-04-17T18:53:44.215Z,100538.84
2023-04-17T18:56:16.420Z,100543.25
2023-04-17T18:58:46.164Z,100537.69
2023-04-17T19:01:14.487Z,100541.38
2023-04-17T19:03:43.586Z,100541.28
2023-04-17T19:06:12.198Z,100544.25
2023-04-17T19:08:42.426Z,100539.63
2023-04-17T19:11:10.208Z,100548.63
2023-04-17T19:13:38.937Z,100546.53
2023-04-17T19:16:07.669Z,100545.19
2023-04-17T19:18:37.152Z,100545.19
2023-04-17T19:21:05.045Z,100531.72
2023-04-17T19:23:34.159Z,100535.94
2023-04-17T19:26:02.028Z,100543.00
2023-04-17T19:28:30.738Z,100539.25
2023-04-17T19:31:00.326Z,100542.91
2023-04-17T19:33:29.949Z,100536.47
2023-04-17T19:35:59.561Z,100542.66
2023-04-17T19:38:29.818Z,100538.56
2023-04-17T19:41:20.230Z,100547.78
2023-04-17T19:43:55.443Z,100548.78
2023-04-17T19:46:25.508Z,100546.22
2023-04-17T19:48:54.931Z,100544.59
2023-04-17T19:51:24.138Z,100543.63
2023-04-17T19:53:56.985Z,100545.22
2023-04-17T19:56:25.160Z,100539.84
2023-04-17T19:58:53.618Z,100541.41
2023-04-17T20:01:22.274Z,100545.91
2023-04-17T20:03:51.799Z,100541.28
2023-04-17T20:06:20.765Z,100543.75
2023-04-17T20:08:51.320Z,100533.03
2023-04-17T20:11:20.060Z,100538.13
2023-04-17T20:13:49.236Z,100535.38
2023-04-17T20:16:17.984Z,100533.75
2023-04-17T20:18:47.411Z,100531.84
2023-04-17T20:21:16.079Z,100529.84
2023-04-17T20:23:45.062Z,100526.22
2023-04-17T20:26:13.456Z,100527.16
2023-04-17T20:28:42.490Z,100525.16
2023-04-17T20:31:11.287Z,100528.34
2023-04-17T20:33:40.284Z,100526.00
2023-04-17T20:36:08.326Z,100530.38
2023-04-17T20:38:36.728Z,100528.91
2023-04-17T20:41:04.709Z,100534.19
2023-04-17T20:43:33.164Z,100534.66
2023-04-17T20:46:01.028Z,100528.31
2023-04-17T20:48:29.277Z,100530.16
2023-04-17T20:50:57.211Z,100526.91
2023-04-17T20:53:25.192Z,100525.25
2023-04-17T20:55:52.969Z,100525.97
2023-04-17T20:58:21.210Z,100534.91
2023-04-17T21:03:22.570Z,100534.00
2023-04-17T21:05:50.525Z,100538.28
2023-04-17T21:08:18.879Z,100536.81
2023-04-17T21:10:46.671Z,100531.38
2023-04-17T21:13:14.785Z,100533.88
2023-04-17T21:15:42.606Z,100533.50
2023-04-17T21:18:11.674Z,100533.94
2023-04-17T21:20:39.609Z,100534.19
2023-04-17T21:23:07.785Z,100532.91
2023-04-17T21:25:36.100Z,100541.06
2023-04-17T21:28:04.215Z,100531.94
2023-04-17T21:30:32.127Z,100535.06
2023-04-17T21:33:00.252Z,100537.41
2023-04-17T21:35:28.141Z,100534.72
2023-04-17T21:37:56.190Z,100534.22
2023-04-17T21:40:23.912Z,100531.00
2023-04-17T21:42:52.040Z,100526.31
2023-04-17T21:45:20.210Z,100529.88
2023-04-17T21:47:48.283Z,100529.06
2023-04-17T21:50:16.208Z,100532.47
2023-04-17T21:52:44.635Z,100533.34
2023-04-17T21:55:12.325Z,100530.47
2023-04-17T21:58:18.222Z,100531.16
2023-04-17T22:00:51.155Z,100524.91
2023-04-17T22:03:19.524Z,100539.59
2023-04-17T22:05:51.135Z,100531.94
2023-04-17T22:08:19.522Z,100533.16
2023-04-17T22:10:47.557Z,100533.94
2023-04-17T22:13:16.353Z,100531.16
2023-04-17T22:15:44.567Z,100539.91
2023-04-17T22:18:13.168Z,100529.06
2023-04-17T22:20:41.185Z,100531.84
2023-04-17T22:23:09.549Z,100536.72
2023-04-17T22:25:37.446Z,100537.75
2023-04-17T22:28:05.782Z,100529.09
2023-04-17T22:30:33.610Z,100532.38
2023-04-17T22:33:02.012Z,100531.25
2023-04-17T22:35:30.026Z,100537.69
2023-04-17T22:37:58.498Z,100531.06
2023-04-17T22:40:26.345Z,100539.41
2023-04-17T22:42:54.666Z,100537.47
2023-04-17T22:45:22.696Z,100541.66
2023-04-17T22:47:51.083Z,100537.47
2023-04-17T22:50:19.132Z,100536.94
2023-04-17T22:52:47.555Z,100538.94
2023-04-17T22:55:15.948Z,100533.66
2023-04-17T22:57:44.317Z,100537.69
2023-04-17T23:00:12.842Z,100532.88
2023-04-17T23:02:42.131Z,100542.56
2023-04-17T23:05:10.148Z,100538.59
2023-04-17T23:07:39.693Z,100543.19
2023-04-17T23:10:07.780Z,100544.41
2023-04-17T23:12:36.163Z,100552.00
2023-04-17T23:15:04.289Z,100551.41
2023-04-17T23:17:33.587Z,100553.13
2023-04-17T23:20:01.711Z,100560.19
2023-04-17T23:22:30.063Z,100557.13
2023-04-17T23:24:58.288Z,100543.09
2023-04-17T23:27:26.600Z,100550.41
2023-04-17T23:29:54.521Z,100550.31
2023-04-17T23:32:22.819Z,100552.13
2023-04-17T23:34:51.288Z,100544.00
2023-04-17T23:37:19.803Z,100548.88
2023-04-17T23:39:47.858Z,100541.03
2023-04-17T23:42:16.679Z,100544.13
2023-04-17T23:44:44.686Z,100536.41
2023-04-17T23:47:14.154Z,100536.97
2023-04-17T23:49:42.137Z,100539.97
2023-04-17T23:52:10.460Z,100540.19
2023-04-17T23:54:38.362Z,100535.41
2023-04-17T23:57:06.774Z,100539.94
2023-04-17T23:59:34.627Z,100536.28
